Capitol Logistics 257


TBPB
Grantley Adams International Airport
Bridgetown, BB
KMIA
Miami International Airport
Miami, US

Activity Log

Date Flight Route Aircraft Duration
02/10/2020 CPX257 BGI UA555 ILURI Y185 ACONY Y308 HAGIT Y352 ZQA FLIPR7 B763 4h 17m
05/01/2019 CPX257 BGI UA555 ILURI TUUNA BQN A636 KATOK UA636 ALBBE Y589 FOWEE FOWEE9 B763 3h 41m
04/26/2019 CPX257 BGI UA555 ILURI MEEGL Y421 HAGIT Y308 FOWEE FLIPR6 B763 3h 58m

Route Details

Aircraft Information
Primary: Boeing 767-300BDSF
Backup: Not Available
Route Data
Distance: 1402nm
Sched. Duration: 4h 00m
Avg. Duration: 3h 72m (-27m)
Times Flown: 3
Recm'd Route: BGI UA555 ILURI MEEGL Y421 HAGIT Y308 FOWEE FLIPR6
Planned Altitude: 34,000ft
Origin Wx: TBPB 181700Z 08016KT 8000 SHRA VCSH BKN014 BKN032 26/23 Q1015 NOSIG
Dest. Wx: KMIA 181653Z 11012G20KT 10SM BKN024 BKN050 BKN250 27/20 A3017 RMK AO2 SLP216 T02720200
Notes:

Financial History
Total Freight: 270,155lbs
Average Load: 90,052lbs/flt
Fuel Used: 121,434lbs
Avg. Fuel Used: 40,478lbs/flt
Fuel Expense: $75,289
Avg. Fuel Expense: $25,096
Avg. Fuel Cost: $0.62/lbs
Total Gross Income: $357,798
Pilot Pay: $617
Total Expenses: $38,798
Total Revenue: $240,879
Average Revenue: $119,265.98